createdAt,value
2017-06-13T00:01:17.080Z,1006.08
2017-06-13T00:03:41.250Z,1006.12
2017-06-13T00:05:56.931Z,1006.08
2017-06-13T00:08:04.191Z,1006.07
2017-06-13T00:10:28.307Z,1006.12
2017-06-13T00:12:52.385Z,1006.08
2017-06-13T00:15:16.488Z,1006.06
2017-06-13T00:17:40.543Z,1006.09
2017-06-13T00:20:04.637Z,1006.1
2017-06-13T00:22:28.711Z,1006.04
2017-06-13T00:24:44.366Z,1006.03
2017-06-13T00:27:08.472Z,1006.03
2017-06-13T00:29:32.554Z,1006.02
2017-06-13T00:31:56.539Z,1006.02
2017-06-13T00:33:58.039Z,1006.02
2017-06-13T00:36:22.069Z,1006.08
2017-06-13T00:38:46.151Z,1006.05
2017-06-13T00:41:10.237Z,1006.04
2017-06-13T00:43:34.317Z,1006.05
2017-06-13T00:45:58.417Z,1006.01
2017-06-13T00:48:13.948Z,1006.03
2017-06-13T00:50:38.063Z,1005.97
2017-06-13T00:53:02.134Z,1005.93
2017-06-13T00:55:03.522Z,1005.92
2017-06-13T00:57:27.582Z,1005.95
2017-06-13T00:59:43.228Z,1006.01
2017-06-13T01:02:07.339Z,1006.01
2017-06-13T01:04:31.410Z,1006.05
2017-06-13T01:06:55.500Z,1006.06
2017-06-13T01:09:19.581Z,1006.02
2017-06-13T01:11:43.671Z,1006.01
2017-06-13T01:14:07.748Z,1005.99
2017-06-13T01:16:31.828Z,1006.03
2017-06-13T01:18:55.911Z,1005.96
2017-06-13T01:21:19.885Z,1005.95
2017-06-13T01:23:43.873Z,1005.96
2017-06-13T01:26:07.929Z,1005.93
2017-06-13T01:28:31.946Z,1005.95
2017-06-13T01:30:47.503Z,1006
2017-06-13T01:33:11.482Z,1006.01
2017-06-13T01:35:35.465Z,1006.04
2017-06-13T01:37:59.442Z,1006.07
2017-06-13T01:40:23.450Z,1006.11
2017-06-13T01:42:47.505Z,1006.07
2017-06-13T01:45:11.482Z,1006.07
2017-06-13T01:47:27.079Z,1006.08
2017-06-13T01:49:51.047Z,1006.11
2017-06-13T01:52:15.034Z,1006.12
2017-06-13T01:54:39.023Z,1006.11
2017-06-13T01:56:54.585Z,1006.18
2017-06-13T01:59:18.564Z,1006.16
2017-06-13T02:01:20.400Z,1006.14
2017-06-13T02:03:44.414Z,1006.17
2017-06-13T02:06:08.381Z,1006.17
2017-06-13T02:08:32.357Z,1006.14
2017-06-13T02:10:56.343Z,1006.12
2017-06-13T02:13:20.316Z,1006.12
2017-06-13T02:15:44.295Z,1006.11
2017-06-13T02:18:08.290Z,1006.11
2017-06-13T02:20:32.255Z,1006.1
2017-06-13T02:22:56.220Z,1006.09
2017-06-13T02:24:57.699Z,1006.11
2017-06-13T02:27:21.665Z,1006.09
2017-06-13T02:29:45.539Z,1006.13
2017-06-13T02:32:09.512Z,1006.12
2017-06-13T02:34:33.490Z,1006.17
2017-06-13T02:36:57.474Z,1006.18
2017-06-13T02:39:21.453Z,1006.15
2017-06-13T02:41:45.429Z,1006.15
2017-06-13T02:44:09.418Z,1006.12
2017-06-13T02:46:33.411Z,1006.15
2017-06-13T02:48:57.378Z,1006.16
2017-06-13T02:51:21.364Z,1006.15
2017-06-13T02:53:45.334Z,1006.2
2017-06-13T02:55:55.698Z,1006.22
2017-06-13T02:58:19.665Z,1006.22
2017-06-13T03:00:43.665Z,1006.21
2017-06-13T03:03:07.637Z,1006.2
2017-06-13T03:05:31.613Z,1006.26
2017-06-13T03:07:55.488Z,1006.26
2017-06-13T03:10:10.972Z,1006.29
2017-06-13T03:12:34.947Z,1006.32
2017-06-13T03:14:58.937Z,1006.36
2017-06-13T03:17:22.904Z,1006.39
2017-06-13T03:19:46.894Z,1006.38
2017-06-13T03:22:10.864Z,1006.39
2017-06-13T03:24:34.849Z,1006.44
2017-06-13T03:26:58.830Z,1006.5
2017-06-13T03:29:22.813Z,1006.52
2017-06-13T03:31:46.790Z,1006.53
2017-06-13T03:34:02.337Z,1006.47
2017-06-13T03:38:01.959Z,1006.45
2017-06-13T03:40:25.976Z,1006.43
2017-06-13T03:42:49.956Z,1006.42
2017-06-13T03:45:13.931Z,1006.43
2017-06-13T03:47:29.517Z,1006.44
2017-06-13T03:49:53.490Z,1006.44
2017-06-13T03:52:17.478Z,1006.43
2017-06-13T03:54:33.034Z,1006.46
2017-06-13T03:56:34.383Z,1006.43
2017-06-13T03:58:58.398Z,1006.44
2017-06-13T04:01:13.940Z,1006.53
2017-06-13T04:03:29.425Z,1006.56
2017-06-13T04:05:53.436Z,1006.57
2017-06-13T04:08:17.414Z,1006.47
2017-06-13T04:10:41.401Z,1006.58
2017-06-13T04:13:05.484Z,1006.62
2017-06-13T04:15:29.563Z,1006.66
2017-06-13T04:17:45.145Z,1006.69
2017-06-13T04:20:09.228Z,1006.71
2017-06-13T04:22:33.336Z,1006.78
2017-06-13T04:24:49.116Z,1006.78
2017-06-13T04:27:13.447Z,1006.78
2017-06-13T04:29:06.435Z,1006.78
2017-06-13T04:31:31.022Z,1006.8
2017-06-13T04:33:55.734Z,1006.89
2017-06-13T04:36:20.559Z,1006.85
2017-06-13T04:38:45.480Z,1006.88
2017-06-13T04:41:02.003Z,1006.96
2017-06-13T04:43:27.134Z,1007.01
2017-06-13T04:45:43.867Z,1007
2017-06-13T04:48:09.187Z,1007.05
2017-06-13T04:50:34.633Z,1007.1
2017-06-13T04:53:00.270Z,1007.11
2017-06-13T04:55:17.394Z,1007.1
2017-06-13T04:57:34.595Z,1007.12
2017-06-13T05:00:00.476Z,1007.1
2017-06-13T05:02:17.801Z,1007.13
2017-06-13T05:04:43.747Z,1007.2
2017-06-13T05:07:01.241Z,1007.18
2017-06-13T05:09:27.315Z,1007.21
2017-06-13T05:11:53.579Z,1007.14
2017-06-13T05:14:11.322Z,1007.17
2017-06-13T05:16:37.659Z,1007.18
2017-06-13T05:19:04.114Z,1007.17
2017-06-13T05:21:06.587Z,1007.15
2017-06-13T05:23:33.133Z,1007.1
2017-06-13T05:25:59.682Z,1007.1
2017-06-13T05:28:09.061Z,1007.13
2017-06-13T05:30:35.671Z,1007.15
2017-06-13T05:33:02.316Z,1007.11
2017-06-13T05:35:28.986Z,1007.05
2017-06-13T05:37:55.731Z,1007.08
2017-06-13T05:40:22.588Z,1007.1
2017-06-13T05:42:49.441Z,1007.13
2017-06-13T05:45:16.412Z,1007.14
2017-06-13T05:47:43.370Z,1007.14
2017-06-13T05:49:53.203Z,1007.11
2017-06-13T05:52:20.286Z,1007.08
2017-06-13T05:54:47.434Z,1007.06
2017-06-13T05:57:14.595Z,1007.09
2017-06-13T05:59:41.755Z,1007.09
2017-06-13T06:02:09.031Z,1007.05
2017-06-13T06:04:36.395Z,1007.04
2017-06-13T06:07:03.762Z,1007
2017-06-13T06:09:32.160Z,1007.05
2017-06-13T06:11:59.620Z,1007.07
2017-06-13T06:14:27.073Z,1007.07
2017-06-13T06:16:54.545Z,1007.1
2017-06-13T06:19:22.011Z,1007.09
2017-06-13T06:21:49.481Z,1007
2017-06-13T06:24:08.300Z,1007.05
2017-06-13T06:26:27.201Z,1007.02
2017-06-13T06:28:54.723Z,1007.03
2017-06-13T06:31:22.340Z,1007
2017-06-13T06:33:41.309Z,1007.04
2017-06-13T06:36:08.990Z,1007.06
2017-06-13T06:38:36.635Z,1007.02
2017-06-13T06:41:04.189Z,1006.97
2017-06-13T06:43:15.676Z,1006.96
2017-06-13T06:45:43.213Z,1006.99
2017-06-13T06:48:01.971Z,1007.05
2017-06-13T06:50:30.215Z,1007.04
2017-06-13T06:52:58.246Z,1006.98
2017-06-13T06:55:25.177Z,1006.94
2017-06-13T06:57:51.772Z,1006.94
2017-06-13T07:00:18.274Z,1006.89
2017-06-13T07:02:36.001Z,1006.92
2017-06-13T07:05:02.212Z,1006.89
2017-06-13T07:07:28.327Z,1006.88
2017-06-13T07:09:54.345Z,1006.86
2017-06-13T07:12:11.876Z,1006.87
2017-06-13T07:14:37.890Z,1006.9
2017-06-13T07:17:03.910Z,1006.86
2017-06-13T07:19:21.325Z,1006.88
2017-06-13T07:21:47.254Z,1006.91
2017-06-13T07:24:04.577Z,1006.94
2017-06-13T07:26:30.493Z,1006.9
2017-06-13T07:28:56.337Z,1006.99
2017-06-13T07:31:13.699Z,1006.94
2017-06-13T07:33:39.565Z,1006.99
2017-06-13T07:36:05.507Z,1006.9
2017-06-13T07:38:22.934Z,1006.93
2017-06-13T07:40:24.849Z,1006.92
2017-06-13T07:42:50.822Z,1006.91
2017-06-13T07:45:16.841Z,1006.83
2017-06-13T07:47:42.874Z,1006.84
2017-06-13T07:50:08.796Z,1006.84
2017-06-13T07:52:34.727Z,1006.82
2017-06-13T07:55:00.649Z,1006.83
2017-06-13T07:57:26.573Z,1006.8
2017-06-13T07:59:52.504Z,1006.82
2017-06-13T08:02:18.531Z,1006.84
2017-06-13T08:04:36.061Z,1006.81
2017-06-13T08:06:47.069Z,1006.76
2017-06-13T08:09:04.627Z,1006.73
2017-06-13T08:11:30.665Z,1006.69
2017-06-13T08:13:48.246Z,1006.69
2017-06-13T08:16:14.369Z,1006.72
2017-06-13T08:18:31.951Z,1006.72
2017-06-13T08:20:58.030Z,1006.72
2017-06-13T08:23:24.178Z,1006.73
2017-06-13T08:25:41.756Z,1006.74
2017-06-13T08:27:59.376Z,1006.75
2017-06-13T08:30:25.565Z,1006.68
2017-06-13T08:32:43.188Z,1006.63
2017-06-13T08:35:00.766Z,1006.63
2017-06-13T08:37:26.842Z,1006.64
2017-06-13T08:39:44.415Z,1006.61
2017-06-13T08:42:10.506Z,1006.68
2017-06-13T08:44:36.633Z,1006.7
2017-06-13T08:46:54.215Z,1006.73
2017-06-13T08:48:56.711Z,1006.73
2017-06-13T08:51:14.307Z,1006.7
2017-06-13T08:53:40.379Z,1006.73
2017-06-13T08:56:06.526Z,1006.66
2017-06-13T08:58:32.552Z,1006.7
2017-06-13T09:00:58.672Z,1006.64
2017-06-13T09:03:24.806Z,1006.62
2017-06-13T09:05:33.724Z,1006.63
2017-06-13T09:07:59.763Z,1006.66
2017-06-13T09:09:53.070Z,1006.71
2017-06-13T09:12:19.146Z,1006.67
2017-06-13T09:14:45.304Z,1006.7
2017-06-13T09:17:03.822Z,1006.65
2017-06-13T09:19:30.890Z,1006.65
2017-06-13T09:21:57.933Z,1006.57
2017-06-13T09:24:24.979Z,1006.52
2017-06-13T09:26:51.124Z,1006.5
2017-06-13T09:29:18.177Z,1006.52
2017-06-13T09:31:44.304Z,1006.51
2017-06-13T09:34:10.418Z,1006.51
2017-06-13T09:36:36.450Z,1006.54
2017-06-13T09:39:02.454Z,1006.53
2017-06-13T09:41:19.937Z,1006.52
2017-06-13T09:43:37.419Z,1006.47
2017-06-13T09:45:54.844Z,1006.48
2017-06-13T09:48:20.769Z,1006.48
2017-06-13T09:50:46.800Z,1006.5
2017-06-13T09:53:12.728Z,1006.44
2017-06-13T09:55:14.619Z,1006.39
2017-06-13T09:57:32.997Z,1006.38
2017-06-13T09:59:58.785Z,1006.39
2017-06-13T10:02:24.538Z,1006.39
2017-06-13T10:04:50.371Z,1006.33
2017-06-13T10:07:16.069Z,1006.31
2017-06-13T10:09:41.815Z,1006.3
2017-06-13T10:12:07.506Z,1006.22
2017-06-13T10:14:33.130Z,1006.22
2017-06-13T10:16:58.771Z,1006.17
2017-06-13T10:19:24.353Z,1006.14
2017-06-13T10:21:49.960Z,1006.09
2017-06-13T10:24:15.471Z,1006.12
2017-06-13T10:26:40.969Z,1006.09
2017-06-13T10:29:06.485Z,1006.05
2017-06-13T10:31:31.905Z,1005.99
2017-06-13T10:33:57.311Z,1006.07
2017-06-13T10:36:22.713Z,1006.02
2017-06-13T10:38:48.132Z,1006.01
2017-06-13T10:41:13.536Z,1006
2017-06-13T10:43:30.450Z,1006
2017-06-13T10:45:55.749Z,1005.94
2017-06-13T10:48:21.058Z,1005.98
2017-06-13T10:50:37.863Z,1005.91
2017-06-13T10:53:03.086Z,1005.89
2017-06-13T10:55:28.378Z,1005.88
2017-06-13T10:57:53.598Z,1005.84
2017-06-13T11:00:04.375Z,1005.81
2017-06-13T11:02:29.652Z,1005.78
2017-06-13T11:04:54.865Z,1005.74
2017-06-13T11:07:20.750Z,1005.71
2017-06-13T11:09:45.278Z,1005.69
2017-06-13T11:11:46.905Z,1005.66
2017-06-13T11:14:04.325Z,1005.67
2017-06-13T11:16:28.670Z,1005.63
2017-06-13T11:18:53.738Z,1005.59
2017-06-13T11:21:18.854Z,1005.55
2017-06-13T11:23:35.467Z,1005.51
2017-06-13T11:26:00.578Z,1005.46
2017-06-13T11:28:25.673Z,1005.45
2017-06-13T11:30:50.778Z,1005.5
2017-06-13T11:33:15.822Z,1005.38
2017-06-13T11:35:40.887Z,1005.3
2017-06-13T11:38:05.986Z,1005.34
2017-06-13T11:40:22.615Z,1005.42
2017-06-13T11:42:32.893Z,1005.47
2017-06-13T11:44:35.066Z,1005.42
2017-06-13T11:47:00.131Z,1005.45
2017-06-13T11:49:25.235Z,1005.54
2017-06-13T11:51:50.333Z,1005.52
2017-06-13T11:54:15.441Z,1005.48
2017-06-13T11:56:40.566Z,1005.4
2017-06-13T11:59:05.646Z,1005.43
2017-06-13T12:01:22.257Z,1005.45
2017-06-13T12:03:38.852Z,1005.47
2017-06-13T12:06:03.860Z,1005.45
2017-06-13T12:08:20.473Z,1005.39
2017-06-13T12:10:45.468Z,1005.37
2017-06-13T12:13:10.460Z,1005.31
2017-06-13T12:15:35.476Z,1005.27
2017-06-13T12:18:00.481Z,1005.24
2017-06-13T12:20:25.485Z,1005.34
2017-06-13T12:22:41.987Z,1005.34
2017-06-13T12:25:06.991Z,1005.32
2017-06-13T12:27:32.110Z,1005.35
2017-06-13T12:29:48.617Z,1005.44
2017-06-13T12:32:05.110Z,1005.32
2017-06-13T12:34:30.088Z,1005.4
2017-06-13T12:36:55.102Z,1005.41
2017-06-13T12:39:20.114Z,1005.35
2017-06-13T12:41:45.118Z,1005.28
2017-06-13T12:44:01.610Z,1005.26
2017-06-13T12:46:18.158Z,1005.25
2017-06-13T12:48:34.722Z,1005.21
2017-06-13T12:50:59.767Z,1005.22
2017-06-13T12:53:24.808Z,1005.2
2017-06-13T12:55:49.846Z,1005.23
2017-06-13T12:58:06.387Z,1005.19
2017-06-13T13:00:08.012Z,1005.2
2017-06-13T13:02:33.081Z,1005.17
2017-06-13T13:04:49.639Z,1005.19
2017-06-13T13:06:57.681Z,1005.08
2017-06-13T13:09:22.655Z,1005.04
2017-06-13T13:11:47.638Z,1005.01
2017-06-13T13:14:12.588Z,1004.98
2017-06-13T13:16:37.530Z,1004.95
2017-06-13T13:19:02.447Z,1004.98
2017-06-13T13:21:18.907Z,1004.96
2017-06-13T13:23:43.833Z,1004.91
2017-06-13T13:26:08.813Z,1004.92
2017-06-13T13:28:33.745Z,1004.92
2017-06-13T13:30:58.693Z,1004.83
2017-06-13T13:33:23.600Z,1004.8
2017-06-13T13:35:48.548Z,1004.82
2017-06-13T13:37:50.188Z,1004.88
2017-06-13T13:40:06.654Z,1004.82
2017-06-13T13:42:31.610Z,1004.86
2017-06-13T13:44:48.077Z,1004.73
2017-06-13T13:47:13.009Z,1004.75
2017-06-13T13:49:37.964Z,1004.75
2017-06-13T13:52:02.887Z,1004.77
2017-06-13T13:54:19.347Z,1004.74
2017-06-13T13:56:44.264Z,1004.71
2017-06-13T13:59:00.696Z,1004.66
2017-06-13T14:01:02.796Z,1004.64
2017-06-13T14:02:56.447Z,1004.63
2017-06-13T14:05:21.404Z,1004.7
2017-06-13T14:07:37.835Z,1004.62
2017-06-13T14:10:02.759Z,1004.68
2017-06-13T14:12:19.171Z,1004.62
2017-06-13T14:14:44.096Z,1004.55
2017-06-13T14:17:09.000Z,1004.63
2017-06-13T14:19:33.908Z,1004.64
2017-06-13T14:21:50.363Z,1004.64
2017-06-13T14:24:15.286Z,1004.64
2017-06-13T14:26:16.874Z,1004.63
2017-06-13T14:28:41.813Z,1004.57
2017-06-13T14:31:06.681Z,1004.56
2017-06-13T14:33:31.568Z,1004.61
2017-06-13T14:35:33.180Z,1004.63
2017-06-13T14:37:58.087Z,1004.65
2017-06-13T14:40:22.973Z,1004.58
2017-06-13T14:42:47.864Z,1004.56
2017-06-13T14:45:12.740Z,1004.45
2017-06-13T14:47:37.644Z,1004.5
2017-06-13T14:50:02.545Z,1004.52
2017-06-13T14:52:18.925Z,1004.52
2017-06-13T14:54:43.808Z,1004.56
2017-06-13T14:57:00.182Z,1004.56
2017-06-13T14:58:53.767Z,1004.55
2017-06-13T15:01:10.096Z,1004.53
2017-06-13T15:03:26.420Z,1004.58
2017-06-13T15:05:51.223Z,1004.59
2017-06-13T15:08:16.013Z,1004.58
2017-06-13T15:10:40.802Z,1004.63
2017-06-13T15:13:05.618Z,1004.57
2017-06-13T15:15:30.402Z,1004.53
2017-06-13T15:17:55.191Z,1004.52
2017-06-13T15:20:19.981Z,1004.58
2017-06-13T15:22:44.709Z,1004.6
2017-06-13T15:25:00.977Z,1004.54
2017-06-13T15:27:03.027Z,1004.55
2017-06-13T15:29:27.802Z,1004.59
2017-06-13T15:31:29.354Z,1004.6
2017-06-13T15:33:54.125Z,1004.64
2017-06-13T15:36:04.301Z,1004.65
2017-06-13T15:38:29.074Z,1004.64
2017-06-13T15:40:53.790Z,1004.65
2017-06-13T15:43:18.582Z,1004.64
2017-06-13T15:45:43.326Z,1004.66
2017-06-13T15:48:08.092Z,1004.63
2017-06-13T15:50:32.842Z,1004.54
2017-06-13T15:52:57.608Z,1004.5
2017-06-13T15:55:23.355Z,1004.47
2017-06-13T15:57:48.038Z,1004.55
2017-06-13T16:00:12.755Z,1004.49
2017-06-13T16:02:20.518Z,1004.48
2017-06-13T16:04:45.224Z,1004.54
2017-06-13T16:07:09.938Z,1004.47
2017-06-13T16:09:34.634Z,1004.47
2017-06-13T16:11:59.357Z,1004.49
2017-06-13T16:14:24.069Z,1004.51
2017-06-13T16:16:40.344Z,1004.49
2017-06-13T16:19:05.047Z,1004.46
2017-06-13T16:21:29.682Z,1004.45
2017-06-13T16:23:45.863Z,1004.43
2017-06-13T16:26:10.498Z,1004.46
2017-06-13T16:28:35.165Z,1004.37
2017-06-13T16:30:59.839Z,1004.41
2017-06-13T16:33:16.004Z,1004.32
2017-06-13T16:35:40.670Z,1004.28
2017-06-13T16:38:05.358Z,1004.28
2017-06-13T16:40:30.042Z,1004.36
2017-06-13T16:42:54.707Z,1004.29
2017-06-13T16:45:19.357Z,1004.27
2017-06-13T16:47:35.575Z,1004.26
2017-06-13T16:50:00.244Z,1004.27
2017-06-13T16:52:24.902Z,1004.28
2017-06-13T16:54:49.550Z,1004.28
2017-06-13T16:57:05.721Z,1004.28
2017-06-13T16:59:07.763Z,1004.34
2017-06-13T17:01:23.887Z,1004.3
2017-06-13T17:03:48.497Z,1004.25
2017-06-13T17:06:13.095Z,1004.24
2017-06-13T17:08:37.723Z,1004.25
2017-06-13T17:10:48.311Z,1004.23
2017-06-13T17:13:13.023Z,1004.24
2017-06-13T17:15:44.648Z,1004.23
2017-06-13T17:17:47.662Z,1004.12
2017-06-13T17:20:12.285Z,1004.12
2017-06-13T17:22:28.342Z,1004.21
2017-06-13T17:24:52.858Z,1004.18
2017-06-13T17:27:08.948Z,1004.24
2017-06-13T17:29:25.048Z,1004.16
2017-06-13T17:31:41.220Z,1004.24
2017-06-13T17:34:05.753Z,1004.23
2017-06-13T17:36:30.295Z,1004.2
2017-06-13T17:38:46.386Z,1004.12
2017-06-13T17:41:10.929Z,1004.17
2017-06-13T17:43:35.465Z,1004.22
2017-06-13T17:46:00.003Z,1004.16
2017-06-13T17:48:24.641Z,1004.09
2017-06-13T17:50:49.140Z,1004.12
2017-06-13T17:53:05.330Z,1004.13
2017-06-13T17:55:29.938Z,1004.09
2017-06-13T17:57:54.516Z,1004.12
2017-06-13T18:00:19.056Z,1004.16
2017-06-13T18:02:43.718Z,1004.13
2017-06-13T18:05:08.325Z,1004.06
2017-06-13T18:07:32.914Z,1004.12
2017-06-13T18:09:57.473Z,1004.14
2017-06-13T18:12:29.044Z,1004.1
2017-06-13T18:14:39.622Z,1004.09
2017-06-13T18:17:04.204Z,1004.16
2017-06-13T18:19:20.314Z,1004.07
2017-06-13T18:21:44.897Z,1004
2017-06-13T18:24:09.489Z,1004
2017-06-13T18:26:34.076Z,1004.06
2017-06-13T18:28:58.651Z,1004.05
2017-06-13T18:31:23.190Z,1003.96
2017-06-13T18:33:47.663Z,1004
2017-06-13T18:35:49.154Z,1003.96
2017-06-13T18:37:59.689Z,1003.96
2017-06-13T18:40:24.268Z,1004.03
2017-06-13T18:42:40.261Z,1004.05
2017-06-13T18:45:04.858Z,1004.09
2017-06-13T18:47:29.438Z,1004.1
2017-06-13T18:49:53.890Z,1004.08
2017-06-13T18:52:09.954Z,1004.09
2017-06-13T18:54:34.403Z,1004.14
2017-06-13T18:56:58.896Z,1004.19
2017-06-13T18:59:23.402Z,1004.22
2017-06-13T19:01:47.863Z,1004.18
2017-06-13T19:04:12.383Z,1004.16
2017-06-13T19:06:36.868Z,1004.15
2017-06-13T19:08:52.843Z,1004.1
2017-06-13T19:11:08.812Z,1004.01
2017-06-13T19:13:33.229Z,1004.15
2017-06-13T19:15:49.261Z,1004.25
2017-06-13T19:18:13.708Z,1004.33
2017-06-13T19:20:29.637Z,1004.3
2017-06-13T19:22:54.093Z,1004.26
2017-06-13T19:25:18.484Z,1004.29
2017-06-13T19:27:42.864Z,1004.32
2017-06-13T19:30:07.254Z,1004.33
2017-06-13T19:32:17.749Z,1004.4
2017-06-13T19:34:42.238Z,1004.47
2017-06-13T19:36:44.132Z,1004.49
2017-06-13T19:39:08.560Z,1004.56
2017-06-13T19:43:08.801Z,1004.6
2017-06-13T19:45:33.314Z,1004.63
2017-06-13T19:47:57.669Z,1004.66
2017-06-13T19:50:22.066Z,1004.74
2017-06-13T19:52:38.030Z,1004.82
2017-06-13T19:55:02.449Z,1004.94
2017-06-13T19:57:04.410Z,1004.96
2017-06-13T19:59:20.339Z,1004.92
2017-06-13T20:01:44.691Z,1004.98
2017-06-13T20:04:08.962Z,1005
2017-06-13T20:06:33.255Z,1005.07
2017-06-13T20:08:57.649Z,1005.15
2017-06-13T20:11:13.594Z,1005.2
2017-06-13T20:13:15.524Z,1005.14
2017-06-13T20:15:31.433Z,1005.16
2017-06-13T20:17:55.785Z,1005.2
2017-06-13T20:20:20.181Z,1005.23
2017-06-13T20:22:44.545Z,1005.27
2017-06-13T20:24:46.514Z,1005.25
2017-06-13T20:27:10.913Z,1005.18
2017-06-13T20:29:12.828Z,1005.21
2017-06-13T20:31:24.308Z,1005.21
2017-06-13T20:33:48.637Z,1005.3
2017-06-13T20:36:12.927Z,1005.32
2017-06-13T20:38:37.296Z,1005.31
2017-06-13T20:40:53.150Z,1005.34
2017-06-13T20:43:17.392Z,1005.37
2017-06-13T20:45:41.682Z,1005.36
2017-06-13T20:48:05.965Z,1005.41
2017-06-13T20:50:30.232Z,1005.39
2017-06-13T20:52:54.514Z,1005.34
2017-06-13T20:54:56.430Z,1005.32
2017-06-13T20:57:12.330Z,1005.27
2017-06-13T20:59:36.573Z,1005.31
2017-06-13T21:02:00.850Z,1005.37
2017-06-13T21:04:25.130Z,1005.33
2017-06-13T21:06:49.406Z,1005.33
2017-06-13T21:09:15.671Z,1005.3
2017-06-13T21:11:39.843Z,1005.25
2017-06-13T21:14:03.995Z,1005.29
2017-06-13T21:16:28.201Z,1005.38
2017-06-13T21:18:52.385Z,1005.4
2017-06-13T21:21:16.560Z,1005.41
2017-06-13T21:23:32.310Z,1005.31
2017-06-13T21:25:48.166Z,1005.31
2017-06-13T21:28:12.330Z,1005.31
2017-06-13T21:30:36.516Z,1005.31
2017-06-13T21:33:00.718Z,1005.3
2017-06-13T21:35:24.884Z,1005.37
2017-06-13T21:37:40.669Z,1005.38
2017-06-13T21:40:04.849Z,1005.47
2017-06-13T21:42:29.031Z,1005.46
2017-06-13T21:44:53.206Z,1005.54
2017-06-13T21:47:17.404Z,1005.5
2017-06-13T21:49:41.584Z,1005.52
2017-06-13T21:52:05.775Z,1005.5
2017-06-13T21:54:29.954Z,1005.43
2017-06-13T21:56:54.140Z,1005.38
2017-06-13T21:59:18.329Z,1005.39
2017-06-13T22:01:42.505Z,1005.4
2017-06-13T22:04:06.696Z,1005.43
2017-06-13T22:06:22.429Z,1005.38
2017-06-13T22:08:46.660Z,1005.37
2017-06-13T22:11:10.842Z,1005.43
2017-06-13T22:13:35.023Z,1005.46
2017-06-13T22:15:27.978Z,1005.5
2017-06-13T22:17:52.171Z,1005.56
2017-06-13T22:20:16.342Z,1005.62
2017-06-13T22:22:40.518Z,1005.64
2017-06-13T22:24:56.270Z,1005.66
2017-06-13T22:27:20.390Z,1005.65
2017-06-13T22:29:44.570Z,1005.62
2017-06-13T22:32:00.258Z,1005.68
2017-06-13T22:34:02.273Z,1005.74
2017-06-13T22:36:26.416Z,1005.71
2017-06-13T22:38:50.491Z,1005.73
2017-06-13T22:41:14.570Z,1005.78
2017-06-13T22:43:38.648Z,1005.78
2017-06-13T22:46:02.731Z,1005.74
2017-06-13T22:48:18.413Z,1005.74
2017-06-13T22:50:42.500Z,1005.72
2017-06-13T22:52:58.145Z,1005.74
2017-06-13T22:54:59.523Z,1005.77
2017-06-13T22:57:23.617Z,1005.85
2017-06-13T22:59:24.957Z,1005.87
2017-06-13T23:01:49.153Z,1005.87
2017-06-13T23:04:04.839Z,1005.87
2017-06-13T23:06:28.922Z,1005.82
2017-06-13T23:08:52.990Z,1005.84
2017-06-13T23:11:08.636Z,1005.91
2017-06-13T23:13:32.758Z,1005.94
2017-06-13T23:15:56.954Z,1005.97
2017-06-13T23:19:57.362Z,1006.08
2017-06-13T23:22:04.640Z,1006.05
2017-06-13T23:24:28.763Z,1006.06
2017-06-13T23:26:44.402Z,1006.05
2017-06-13T23:29:08.534Z,1006.02
2017-06-13T23:31:24.205Z,1005.99
2017-06-13T23:33:48.300Z,1005.95
2017-06-13T23:36:12.379Z,1005.99
2017-06-13T23:38:36.454Z,1005.97
2017-06-13T23:41:00.541Z,1005.91
2017-06-13T23:43:16.221Z,1005.87
2017-06-13T23:45:40.414Z,1005.86
2017-06-13T23:48:04.487Z,1005.83
2017-06-13T23:50:28.570Z,1005.84
2017-06-13T23:52:44.268Z,1005.84
2017-06-13T23:55:08.336Z,1005.78
2017-06-13T23:57:09.711Z,1005.68
2017-06-13T23:59:25.372Z,1005.65
